DLH9MH EDDB-EDDF
Flight info
| Callsign | DLH9MH |
|---|---|
| Flight time | N/A |
| Altitude | 23000 |
| Route | KISUC1N KISUC Z117 ODLUN/N0418F240 DCT ORTAG/N0406F220 T177 ODIPI/N0399F210 T157 KERAX KERAX5A |
| Aircraft | A320/M-SDE3FGHIRWY/LB1 |
Departure
| Time | 2026-05-04 13:13 |
|---|---|
| Airport | Berlin Brandenburg Airport (EDDB) |
Arrival
| Time | N/A |
|---|---|
| Airport | Frankfurt Main Airport (EDDF) |
| Time | Latitude | Longitude | Altitude | Speed | Heading |
|---|---|---|---|---|---|
| 2026-05-04 12:45 | 52.36177 | 13.50736 | 155 ft | 0 kts | 69° |
| 2026-05-04 13:06 | 52.36171 | 13.50713 | 154 ft | 4 kts | 69° |
| 2026-05-04 13:07 | 52.36165 | 13.50685 | 154 ft | 4 kts | 71° |
| 2026-05-04 13:07 | 52.36157 | 13.50643 | 154 ft | 4 kts | 77° |
| 2026-05-04 13:07 | 52.36154 | 13.50600 | 154 ft | 4 kts | 102° |
| 2026-05-04 13:07 | 52.36162 | 13.50574 | 154 ft | 1 kts | 158° |
| 2026-05-04 13:10 | 52.36138 | 13.50590 | 154 ft | 6 kts | 158° |
| 2026-05-04 13:10 | 52.36101 | 13.50617 | 154 ft | 6 kts | 157° |
| 2026-05-04 13:10 | 52.36045 | 13.50654 | 154 ft | 12 kts | 158° |
| 2026-05-04 13:10 | 52.35960 | 13.50708 | 154 ft | 13 kts | 159° |
| 2026-05-04 13:11 | 52.35884 | 13.50754 | 154 ft | 11 kts | 160° |
| 2026-05-04 13:11 | 52.35816 | 13.50797 | 154 ft | 10 kts | 159° |
| 2026-05-04 13:11 | 52.35758 | 13.50833 | 154 ft | 9 kts | 161° |
| 2026-05-04 13:11 | 52.35668 | 13.50793 | 154 ft | 19 kts | 216° |
| 2026-05-04 13:12 | 52.35538 | 13.50630 | 154 ft | 30 kts | 219° |
| 2026-05-04 13:12 | 52.35357 | 13.50320 | 154 ft | 49 kts | 245° |
| 2026-05-04 13:12 | 52.35159 | 13.49456 | 154 ft | 112 kts | 249° |
| 2026-05-04 13:12 | 52.34813 | 13.47996 | 166 ft | 160 kts | 250° |
| 2026-05-04 13:13 | 52.34387 | 13.46246 | 673 ft | 167 kts | 250° |
| 2026-05-04 13:13 | 52.33778 | 13.44617 | 1380 ft | 171 kts | 228° |
| 2026-05-04 13:13 | 52.32907 | 13.43095 | 1695 ft | 196 kts | 229° |
| 2026-05-04 13:13 | 52.31950 | 13.41326 | 2074 ft | 218 kts | 231° |
| 2026-05-04 13:14 | 52.30952 | 13.39447 | 2920 ft | 218 kts | 231° |
| 2026-05-04 13:14 | 52.29947 | 13.37562 | 3793 ft | 222 kts | 230° |
| 2026-05-04 13:14 | 52.28924 | 13.35650 | 4635 ft | 225 kts | 230° |
| 2026-05-04 13:14 | 52.27890 | 13.33726 | 5484 ft | 227 kts | 230° |
| 2026-05-04 13:15 | 52.26841 | 13.31779 | 6301 ft | 230 kts | 230° |
| 2026-05-04 13:15 | 52.25779 | 13.29810 | 7118 ft | 232 kts | 230° |
| 2026-05-04 13:15 | 52.24721 | 13.27812 | 7918 ft | 233 kts | 234° |
| 2026-05-04 13:15 | 52.23920 | 13.25474 | 8524 ft | 246 kts | 248° |
| 2026-05-04 13:16 | 52.23254 | 13.22826 | 8967 ft | 264 kts | 248° |
| 2026-05-04 13:16 | 52.22553 | 13.20008 | 9725 ft | 270 kts | 248° |
| 2026-05-04 13:16 | 52.21842 | 13.17157 | 10495 ft | 273 kts | 248° |
| 2026-05-04 13:16 | 52.21118 | 13.14269 | 11257 ft | 276 kts | 248° |
| 2026-05-04 13:17 | 52.20385 | 13.11351 | 12005 ft | 280 kts | 247° |
| 2026-05-04 13:17 | 52.19640 | 13.08398 | 12749 ft | 283 kts | 247° |
| 2026-05-04 13:17 | 52.18882 | 13.05409 | 13500 ft | 287 kts | 247° |
| 2026-05-04 13:17 | 52.18112 | 13.02382 | 14183 ft | 290 kts | 247° |
| 2026-05-04 13:18 | 52.17336 | 12.99331 | 14852 ft | 293 kts | 247° |
| 2026-05-04 13:18 | 52.16560 | 12.96250 | 15542 ft | 295 kts | 249° |
| 2026-05-04 13:18 | 52.16005 | 12.92985 | 15957 ft | 308 kts | 256° |
| 2026-05-04 13:18 | 52.15506 | 12.89470 | 16099 ft | 328 kts | 256° |
| 2026-05-04 13:19 | 52.14986 | 12.85731 | 16240 ft | 347 kts | 256° |
| 2026-05-04 13:19 | 52.14451 | 12.81887 | 16622 ft | 356 kts | 256° |
| 2026-05-04 13:19 | 52.13900 | 12.77931 | 17195 ft | 360 kts | 256° |
| 2026-05-04 13:19 | 52.13342 | 12.73947 | 17808 ft | 362 kts | 256° |
| 2026-05-04 13:20 | 52.12777 | 12.69937 | 18385 ft | 365 kts | 256° |
| 2026-05-04 13:20 | 52.12205 | 12.65905 | 18897 ft | 367 kts | 256° |
| 2026-05-04 13:20 | 52.11625 | 12.61842 | 19401 ft | 370 kts | 256° |
| 2026-05-04 13:20 | 52.11037 | 12.57753 | 19913 ft | 372 kts | 256° |
| 2026-05-04 13:21 | 52.10443 | 12.53637 | 20398 ft | 375 kts | 256° |
| 2026-05-04 13:21 | 52.09846 | 12.49499 | 20869 ft | 378 kts | 256° |
| 2026-05-04 13:21 | 52.09239 | 12.45311 | 21297 ft | 382 kts | 256° |
| 2026-05-04 13:21 | 52.08627 | 12.41098 | 21762 ft | 385 kts | 256° |
| 2026-05-04 13:22 | 52.08008 | 12.36844 | 22234 ft | 387 kts | 255° |
| 2026-05-04 13:22 | 52.07137 | 12.32699 | 22713 ft | 389 kts | 245° |
| 2026-05-04 13:22 | 52.05818 | 12.28848 | 22930 ft | 391 kts | 236° |
| 2026-05-04 13:22 | 52.04177 | 12.25245 | 22969 ft | 401 kts | 234° |
| 2026-05-04 13:23 | 52.02494 | 12.21596 | 22967 ft | 404 kts | 234° |
| 2026-05-04 13:23 | 52.00810 | 12.17936 | 22967 ft | 405 kts | 234° |
| 2026-05-04 13:23 | 51.99129 | 12.14277 | 22967 ft | 405 kts | 234° |
| 2026-05-04 13:23 | 51.97442 | 12.10611 | 22967 ft | 405 kts | 234° |
| 2026-05-04 13:24 | 51.95755 | 12.06953 | 22967 ft | 405 kts | 234° |
| 2026-05-04 13:24 | 51.94067 | 12.03294 | 22967 ft | 405 kts | 234° |
| 2026-05-04 13:24 | 51.92377 | 11.99634 | 22967 ft | 405 kts | 234° |
| 2026-05-04 13:25 | 51.88995 | 11.92331 | 22953 ft | 406 kts | 234° |
| 2026-05-04 13:25 | 51.87323 | 11.88731 | 22959 ft | 406 kts | 234° |
| 2026-05-04 13:25 | 51.85625 | 11.85081 | 22963 ft | 406 kts | 234° |
| 2026-05-04 13:25 | 51.83924 | 11.81436 | 23072 ft | 405 kts | 233° |
| 2026-05-04 13:26 | 51.82191 | 11.77762 | 23361 ft | 406 kts | 233° |
| 2026-05-04 13:26 | 51.80491 | 11.74179 | 23618 ft | 408 kts | 233° |
| 2026-05-04 13:26 | 51.78762 | 11.70548 | 23854 ft | 409 kts | 233° |
| 2026-05-04 13:26 | 51.77018 | 11.66901 | 23961 ft | 409 kts | 233° |
| 2026-05-04 13:27 | 51.75275 | 11.63258 | 23994 ft | 409 kts | 233° |
| 2026-05-04 13:27 | 51.73544 | 11.59634 | 23993 ft | 408 kts | 233° |
| 2026-05-04 13:27 | 51.71811 | 11.55998 | 23995 ft | 408 kts | 233° |
| 2026-05-04 13:27 | 51.70086 | 11.52379 | 23987 ft | 408 kts | 233° |
| 2026-05-04 13:28 | 51.68364 | 11.48766 | 23991 ft | 409 kts | 233° |
| 2026-05-04 13:28 | 51.66629 | 11.45131 | 23990 ft | 409 kts | 233° |
| 2026-05-04 13:28 | 51.64891 | 11.41506 | 23987 ft | 409 kts | 233° |
| 2026-05-04 13:28 | 51.63149 | 11.37886 | 23985 ft | 409 kts | 233° |
| 2026-05-04 13:29 | 51.61409 | 11.34273 | 23985 ft | 409 kts | 233° |
| 2026-05-04 13:29 | 51.59664 | 11.30662 | 23982 ft | 409 kts | 233° |
| 2026-05-04 13:29 | 51.57924 | 11.27060 | 23978 ft | 409 kts | 233° |
| 2026-05-04 13:29 | 51.56178 | 11.23442 | 23971 ft | 409 kts | 233° |